Time;durP1;ratioP1;P1;durP2;ratioP2;P2;SDS_P1;SDS_P2;PMS_P1;PMS_P2;Temp;Humidity;BMP_temperature;BMP_pressure;BME280_temperature;BME280_humidity;BME280_pressure;Samples;Min_cycle;Max_cycle;Signal;HPM_P1;HPM_P2
2021/07/25 19:02:32;;;;;;;2.55;2.35;;;21.80;99.00;;;;;;5170182;24;20203;-87
2021/07/25 19:05:00;;;;;;;2.88;2.40;;;21.60;99.70;;;;;;4810619;29;20431;-86
2021/07/25 19:07:29;;;;;;;2.60;2.05;;;21.60;99.80;;;;;;4785889;29;20057;-87
2021/07/25 19:09:57;;;;;;;2.78;2.47;;;21.50;99.90;;;;;;4818252;29;20170;-87
2021/07/25 19:12:24;;;;;;;2.05;1.85;;;21.40;99.90;;;;;;4812208;29;20058;-87
2021/07/25 19:14:55;;;;;;;3.08;2.65;;;21.40;99.90;;;;;;4800363;29;20050;-87
2021/07/25 19:17:28;;;;;;;3.00;2.53;;;21.20;99.90;;;;;;4824433;29;20493;-86
2021/07/25 19:19:55;;;;;;;4.75;2.80;;;21.10;99.90;;;;;;4814033;29;20046;-87
2021/07/25 19:22:22;;;;;;;2.60;2.30;;;21.00;99.90;;;;;;4813613;29;20692;-87
2021/07/25 19:24:49;;;;;;;4.28;2.63;;;20.90;99.90;;;;;;4817716;29;20054;-87
2021/07/25 19:27:16;;;;;;;2.33;1.98;;;20.90;99.90;;;;;;4817155;29;20355;-87
2021/07/25 19:29:43;;;;;;;4.10;3.00;;;20.70;99.90;;;;;;4825325;29;20058;-87
2021/07/25 19:32:10;;;;;;;2.75;2.53;;;20.70;99.90;;;;;;4823032;29;20749;-87
2021/07/25 19:34:37;;;;;;;4.78;2.30;;;20.60;99.90;;;;;;4798686;29;20121;-87
2021/07/25 19:37:04;;;;;;;2.40;2.22;;;20.50;99.90;;;;;;4812196;29;20666;-87
2021/07/25 19:39:31;;;;;;;6.28;2.78;;;20.40;99.90;;;;;;4795433;29;20055;-87
2021/07/25 19:41:58;;;;;;;3.80;2.47;;;20.40;99.90;;;;;;4793109;29;20070;-87
2021/07/25 19:44:31;;;;;;;3.80;3.15;;;20.30;99.90;;;;;;4798369;29;20085;-87
2021/07/25 19:46:59;;;;;;;3.47;2.53;;;20.20;99.90;;;;;;4808584;29;20090;-87
2021/07/25 19:49:28;;;;;;;3.03;2.45;;;20.10;99.90;;;;;;4811169;29;20065;-87
2021/07/25 19:51:55;;;;;;;4.20;2.28;;;20.00;99.90;;;;;;4816375;29;20050;-87
2021/07/25 19:54:24;;;;;;;4.00;2.72;;;20.00;99.90;;;;;;4800057;29;20061;-87
2021/07/25 19:56:52;;;;;;;6.53;2.70;;;19.90;99.90;;;;;;4810014;29;20133;-87
2021/07/25 19:59:39;;;;;;;5.05;3.17;;;19.90;99.90;;;;;;4799017;29;20050;-87
2021/07/25 20:02:07;;;;;;;5.80;2.60;;;19.80;99.90;;;;;;4806337;29;20083;-87
2021/07/25 20:04:36;;;;;;;2.88;2.33;;;19.70;99.90;;;;;;4798810;29;20603;-87
2021/07/25 20:07:23;;;;;;;3.40;2.90;;;19.70;99.90;;;;;;4796587;29;20054;-86
2021/07/25 20:09:51;;;;;;;5.38;3.42;;;19.60;99.90;;;;;;4811580;29;20067;-87
2021/07/25 20:12:18;;;;;;;6.20;3.50;;;19.50;99.90;;;;;;4815874;29;20054;-87
2021/07/25 20:14:49;;;;;;;4.40;2.88;;;19.50;99.90;;;;;;4815838;29;20205;-87
2021/07/25 20:17:17;;;;;;;3.60;3.20;;;19.50;99.90;;;;;;4814197;29;20048;-87
2021/07/25 20:19:45;;;;;;;4.32;3.22;;;19.40;99.90;;;;;;4813634;29;20050;-86
2021/07/25 20:22:13;;;;;;;5.60;3.67;;;19.40;99.90;;;;;;4818694;29;20055;-87
2021/07/25 20:24:41;;;;;;;4.53;3.50;;;19.40;99.90;;;;;;4813071;29;20061;-87
2021/07/25 20:27:08;;;;;;;4.68;3.45;;;19.30;99.90;;;;;;4799445;29;20127;-87
2021/07/25 20:29:45;;;;;;;4.95;4.45;;;19.20;99.90;;;;;;4816546;29;20449;-86
2021/07/25 20:32:12;;;;;;;4.35;3.10;;;19.20;99.90;;;;;;4813039;29;20081;-86
2021/07/25 20:34:39;;;;;;;4.35;3.30;;;19.20;99.90;;;;;;4823343;29;20069;-87
2021/07/25 20:37:06;;;;;;;4.30;3.38;;;19.10;99.90;;;;;;4801201;29;20054;-87
2021/07/25 20:39:33;;;;;;;3.30;3.00;;;19.00;99.90;;;;;;4817353;29;20065;-86
2021/07/25 20:42:01;;;;;;;5.03;3.65;;;19.00;99.90;;;;;;4829952;29;20083;-86
2021/07/25 20:44:28;;;;;;;3.75;3.35;;;19.00;99.90;;;;;;4800624;29;20058;-87
2021/07/25 20:46:55;;;;;;;4.25;3.63;;;18.90;99.90;;;;;;4818618;29;20054;-87
2021/07/25 20:49:22;;;;;;;4.55;3.97;;;18.90;99.90;;;;;;4796929;29;20062;-87
2021/07/25 20:51:50;;;;;;;4.32;3.42;;;18.90;99.90;;;;;;4838589;29;20064;-86
2021/07/25 20:54:18;;;;;;;7.05;4.07;;;18.90;99.90;;;;;;4814237;29;20062;-87
2021/07/25 20:56:52;;;;;;;5.22;3.78;;;18.90;99.90;;;;;;4810342;29;20488;-87
2021/07/25 20:59:20;;;;;;;5.70;4.85;;;18.80;99.90;;;;;;4803928;29;20058;-87
2021/07/25 21:01:47;;;;;;;4.93;4.25;;;18.80;99.90;;;;;;4835304;29;20059;-87
2021/07/25 21:04:14;;;;;;;4.40;3.55;;;18.80;99.90;;;;;;4799513;29;20050;-87
2021/07/25 21:06:41;;;;;;;5.47;4.03;;;18.80;99.90;;;;;;4822713;29;20054;-87
2021/07/25 21:09:08;;;;;;;3.90;3.33;;;18.80;99.90;;;;;;4810025;29;20049;-87
2021/07/25 21:11:35;;;;;;;5.55;3.80;;;18.80;99.90;;;;;;4816721;29;20057;-87
2021/07/25 21:14:04;;;;;;;5.15;4.00;;;18.70;99.90;;;;;;4815189;29;20121;-87
2021/07/25 21:16:32;;;;;;;6.13;3.22;;;18.70;99.90;;;;;;4800341;29;20065;-87
2021/07/25 21:19:02;;;;;;;8.05;4.45;;;18.70;99.90;;;;;;4811784;29;20131;-87
2021/07/25 21:21:29;;;;;;;11.40;5.60;;;18.70;99.90;;;;;;4817118;29;20069;-87
2021/07/25 21:24:01;;;;;;;4.80;3.60;;;18.70;99.90;;;;;;4814169;29;20057;-86
2021/07/25 21:26:28;;;;;;;5.97;4.07;;;18.80;99.90;;;;;;4823289;29;20069;-87
2021/07/25 21:28:58;;;;;;;5.18;4.15;;;18.80;99.90;;;;;;4798223;29;20051;-87
2021/07/25 21:31:25;;;;;;;;;;;18.80;99.90;;;;;;4798259;29;20047;-86
2021/07/25 21:33:52;;;;;;;5.75;4.20;;;18.80;99.90;;;;;;4821266;29;19933;-87
2021/07/25 21:36:20;;;;;;;6.32;5.20;;;18.80;99.90;;;;;;4814583;29;20793;-87
2021/07/25 21:38:47;;;;;;;6.05;3.63;;;18.80;99.90;;;;;;4808529;29;20062;-87
2021/07/25 21:41:14;;;;;;;4.32;3.92;;;18.90;99.90;;;;;;4808444;29;20047;-86
2021/07/25 21:43:41;;;;;;;4.82;4.10;;;18.80;99.90;;;;;;4802241;29;20643;-87
2021/07/25 21:46:09;;;;;;;5.45;3.80;;;18.80;99.90;;;;;;4813485;29;20046;-86
2021/07/25 21:48:37;;;;;;;4.88;3.95;;;18.80;99.90;;;;;;4825544;29;20401;-86
2021/07/25 21:51:05;;;;;;;6.53;4.18;;;18.80;99.90;;;;;;4812012;29;20039;-87
2021/07/25 21:53:32;;;;;;;5.22;4.72;;;18.70;99.90;;;;;;4811775;29;20421;-87
2021/07/25 21:56:06;;;;;;;5.82;3.47;;;18.70;99.90;;;;;;4829622;29;20484;-87
2021/07/25 21:58:33;;;;;;;6.97;3.97;;;18.70;99.90;;;;;;4839017;29;20049;-87
2021/07/25 22:01:05;;;;;;;7.88;4.95;;;18.70;99.90;;;;;;4796789;29;20373;-87
2021/07/25 22:03:51;;;;;;;5.57;4.45;;;18.60;99.90;;;;;;4804177;29;20058;-86
2021/07/25 22:06:20;;;;;;;5.03;3.95;;;18.60;99.90;;;;;;4829498;29;20053;-87
2021/07/25 22:08:48;;;;;;;5.72;4.75;;;18.60;99.90;;;;;;4816098;29;20123;-86
2021/07/25 22:11:15;;;;;;;9.85;5.00;;;18.60;99.90;;;;;;4797328;29;20053;-87
2021/07/25 22:13:42;;;;;;;7.70;5.85;;;18.50;99.90;;;;;;4822032;29;20103;-86
2021/07/25 22:16:10;;;;;;;6.15;4.35;;;18.50;99.90;;;;;;4799549;29;20058;-87
2021/07/25 22:18:37;;;;;;;6.05;4.07;;;18.40;99.90;;;;;;4817322;29;20056;-87
2021/07/25 22:21:04;;;;;;;7.93;5.47;;;18.40;99.90;;;;;;4803102;29;20416;-87
2021/07/25 22:23:34;;;;;;;4.70;3.92;;;18.40;99.90;;;;;;4808513;29;20050;-86
2021/07/25 22:26:02;;;;;;;6.72;4.60;;;18.40;99.90;;;;;;4814643;29;20156;-86
2021/07/25 22:28:29;;;;;;;7.60;5.15;;;18.40;99.90;;;;;;4812216;29;20058;-87
2021/07/25 22:30:55;;;;;;;8.07;5.97;;;18.40;99.90;;;;;;4837356;29;20054;-87
2021/07/25 22:33:22;;;;;;;6.97;5.25;;;18.40;99.90;;;;;;4814648;29;20070;-86
2021/07/25 22:35:50;;;;;;;4.35;3.88;;;18.30;99.90;;;;;;4817245;29;20061;-87
2021/07/25 22:38:17;;;;;;;6.28;4.47;;;18.30;99.90;;;;;;4814919;29;20054;-87
2021/07/25 22:40:44;;;;;;;7.18;5.07;;;18.30;99.90;;;;;;4800792;29;20054;-87
2021/07/25 22:43:11;;;;;;;8.13;5.25;;;18.30;99.90;;;;;;4796043;29;20931;-87
2021/07/25 22:45:38;;;;;;;5.32;4.03;;;18.30;99.90;;;;;;4811552;29;20131;-86
2021/07/25 22:48:09;;;;;;;7.55;4.32;;;18.30;99.90;;;;;;4812339;29;20054;-87
2021/07/25 22:50:38;;;;;;;4.93;4.45;;;18.30;99.90;;;;;;4809375;29;20065;-87
2021/07/25 22:53:05;;;;;;;6.00;4.20;;;18.40;99.90;;;;;;4804062;29;20058;-87
2021/07/25 22:55:34;;;;;;;8.57;5.25;;;18.30;99.90;;;;;;4810387;29;20046;-87
2021/07/25 22:58:02;;;;;;;6.63;4.00;;;18.40;99.90;;;;;;4813725;29;20062;-87
2021/07/25 23:00:32;;;;;;;6.50;4.60;;;18.30;99.90;;;;;;4814276;29;20346;-87
2021/07/25 23:03:04;;;;;;;6.90;4.75;;;18.30;99.90;;;;;;4810575;29;20092;-86
2021/07/25 23:05:33;;;;;;;6.50;4.53;;;18.30;99.90;;;;;;4810052;29;20061;-86
2021/07/25 23:08:00;;;;;;;7.22;4.50;;;18.30;99.90;;;;;;4807004;29;20046;-87
2021/07/25 23:10:27;;;;;;;7.82;5.55;;;18.30;99.90;;;;;;4812374;29;20081;-87
2021/07/25 23:12:54;;;;;;;8.40;5.43;;;18.30;99.90;;;;;;4810256;29;20061;-87
2021/07/25 23:15:21;;;;;;;6.28;5.68;;;18.30;99.90;;;;;;4811922;29;20051;-86
2021/07/25 23:17:48;;;;;;;5.03;4.07;;;18.30;99.90;;;;;;4813895;29;20054;-87
2021/07/25 23:20:15;;;;;;;5.55;4.40;;;18.30;99.90;;;;;;4816199;29;20548;-87
2021/07/25 23:22:42;;;;;;;5.70;4.32;;;18.30;99.90;;;;;;4807393;29;20050;-87
2021/07/25 23:25:11;;;;;;;9.27;5.13;;;18.30;99.90;;;;;;4812514;29;20054;-87
2021/07/25 23:27:38;;;;;;;5.70;4.68;;;18.30;99.90;;;;;;4815725;29;20054;-86
2021/07/25 23:30:05;;;;;;;6.25;4.35;;;18.30;99.90;;;;;;4816293;29;20053;-86
2021/07/25 23:32:32;;;;;;;11.40;6.13;;;18.30;99.90;;;;;;4810681;29;20053;-86
2021/07/25 23:34:59;;;;;;;6.20;4.57;;;18.30;99.90;;;;;;4814497;29;20702;-86
2021/07/25 23:37:26;;;;;;;7.55;5.40;;;18.30;99.90;;;;;;4811422;29;20047;-86
2021/07/25 23:39:54;;;;;;;6.53;4.55;;;18.30;99.90;;;;;;4814533;29;20050;-86
2021/07/25 23:42:21;;;;;;;6.85;4.25;;;18.30;99.90;;;;;;4814364;29;20042;-86
2021/07/25 23:44:51;;;;;;;7.22;5.65;;;18.30;99.90;;;;;;4809967;29;20554;-87
2021/07/25 23:47:18;;;;;;;6.30;4.17;;;18.30;99.90;;;;;;4812762;29;20424;-87
2021/07/25 23:49:45;;;;;;;5.97;5.18;;;18.30;99.90;;;;;;4808260;29;20409;-87
2021/07/25 23:52:12;;;;;;;9.07;5.38;;;18.20;99.90;;;;;;4815116;29;20133;-87
2021/07/25 23:54:39;;;;;;;8.88;4.88;;;18.30;99.90;;;;;;4820516;29;20065;-87
2021/07/25 23:57:06;;;;;;;6.80;4.22;;;18.30;99.90;;;;;;4827469;29;20095;-87
2021/07/25 23:59:33;;;;;;;6.15;4.45;;;18.20;99.90;;;;;;4815104;29;20069;-86
